createdAt,value
2023-05-19T00:00:59.593Z,13.56
2023-05-19T00:01:59.764Z,13.59
2023-05-19T00:03:00.065Z,13.54
2023-05-19T00:04:00.099Z,13.54
2023-05-19T00:05:00.437Z,13.56
2023-05-19T00:06:00.474Z,13.54
2023-05-19T00:07:00.623Z,13.56
2023-05-19T00:08:00.830Z,13.54
2023-05-19T00:09:00.972Z,13.53
2023-05-19T00:10:01.159Z,13.52
2023-05-19T00:11:01.336Z,13.50
2023-05-19T00:12:01.509Z,13.49
2023-05-19T00:13:01.719Z,13.44
2023-05-19T00:14:01.853Z,13.42
2023-05-19T00:15:02.037Z,13.41
2023-05-19T00:16:02.241Z,13.41
2023-05-19T00:17:02.404Z,13.38
2023-05-19T00:18:02.611Z,13.38
2023-05-19T00:19:02.758Z,13.33
2023-05-19T00:20:02.904Z,13.35
2023-05-19T00:21:03.075Z,13.33
2023-05-19T00:22:03.241Z,13.35
2023-05-19T00:23:03.412Z,13.35
2023-05-19T00:24:03.570Z,13.33
2023-05-19T00:25:03.734Z,13.31
2023-05-19T00:26:03.904Z,13.31
2023-05-19T00:27:04.065Z,13.33
2023-05-19T00:28:04.242Z,13.33
2023-05-19T00:29:04.462Z,13.33
2023-05-19T00:30:04.611Z,13.33
2023-05-19T00:31:04.786Z,13.35
2023-05-19T00:32:05.052Z,13.35
2023-05-19T00:33:05.262Z,13.37
2023-05-19T00:34:05.322Z,13.35
2023-05-19T00:35:05.466Z,13.38
2023-05-19T00:36:05.684Z,13.38
2023-05-19T00:37:05.832Z,13.38
2023-05-19T00:38:05.994Z,13.38
2023-05-19T00:39:06.203Z,13.38
2023-05-19T00:40:06.396Z,13.38
2023-05-19T00:41:06.569Z,13.38
2023-05-19T00:42:06.716Z,13.38
2023-05-19T00:43:06.908Z,13.37
2023-05-19T00:44:07.066Z,13.37
2023-05-19T00:45:07.275Z,13.33
2023-05-19T00:46:07.610Z,13.31
2023-05-19T00:47:07.669Z,13.30
2023-05-19T00:48:07.802Z,13.31
2023-05-19T00:49:07.963Z,13.30
2023-05-19T00:50:08.115Z,13.27
2023-05-19T00:51:08.273Z,13.28
2023-05-19T00:52:08.436Z,13.23
2023-05-19T00:53:08.631Z,13.22
2023-05-19T00:54:08.795Z,13.23
2023-05-19T00:55:08.996Z,13.22
2023-05-19T00:56:09.148Z,13.20
2023-05-19T00:57:09.298Z,13.19
2023-05-19T00:58:09.471Z,13.20
2023-05-19T00:59:09.684Z,13.20
2023-05-19T01:00:09.837Z,13.16
2023-05-19T01:01:10.048Z,13.16
2023-05-19T01:02:10.162Z,13.13
2023-05-19T01:03:10.457Z,13.12
2023-05-19T01:04:10.810Z,13.13
2023-05-19T01:05:10.713Z,13.12
2023-05-19T01:06:10.876Z,13.09
2023-05-19T01:07:11.049Z,13.08
2023-05-19T01:08:11.239Z,13.04
2023-05-19T01:09:11.400Z,13.03
2023-05-19T01:10:11.572Z,13.01
2023-05-19T01:11:11.763Z,13.00
2023-05-19T01:12:11.967Z,12.98
2023-05-19T01:13:12.136Z,12.95
2023-05-19T01:14:12.298Z,12.95
2023-05-19T01:15:12.465Z,12.95
2023-05-19T01:16:12.745Z,12.94
2023-05-19T01:17:12.821Z,12.90
2023-05-19T01:18:13.039Z,12.86
2023-05-19T01:19:13.236Z,12.83
2023-05-19T01:20:13.340Z,12.82
2023-05-19T01:21:13.491Z,12.79
2023-05-19T01:22:13.668Z,12.76
2023-05-19T01:23:13.821Z,12.75
2023-05-19T01:24:13.981Z,12.73
2023-05-19T01:25:14.149Z,12.73
2023-05-19T01:26:14.323Z,12.68
2023-05-19T01:27:14.491Z,12.70
2023-05-19T01:28:14.647Z,12.67
2023-05-19T01:29:14.837Z,12.65
2023-05-19T01:30:15.022Z,12.62
2023-05-19T01:31:15.209Z,12.62
2023-05-19T01:32:15.411Z,12.62
2023-05-19T01:33:15.543Z,12.61
2023-05-19T01:34:15.713Z,12.61
2023-05-19T01:35:15.868Z,12.60
2023-05-19T01:36:16.033Z,12.60
2023-05-19T01:37:16.272Z,12.57
2023-05-19T01:38:16.454Z,12.53
2023-05-19T01:39:16.573Z,12.54
2023-05-19T01:40:16.751Z,12.53
2023-05-19T01:41:16.919Z,12.49
2023-05-19T01:42:17.097Z,12.47
2023-05-19T01:43:17.261Z,12.46
2023-05-19T01:44:17.441Z,12.46
2023-05-19T01:45:17.612Z,12.45
2023-05-19T01:46:17.813Z,12.43
2023-05-19T01:47:17.977Z,12.45
2023-05-19T01:48:18.136Z,12.43
2023-05-19T01:49:18.307Z,12.43
2023-05-19T01:50:18.462Z,12.43
2023-05-19T01:51:18.692Z,12.39
2023-05-19T01:52:18.844Z,12.42
2023-05-19T01:53:19.007Z,12.40
2023-05-19T01:54:19.163Z,12.39
2023-05-19T01:55:19.336Z,12.39
2023-05-19T01:56:19.504Z,12.39
2023-05-19T01:57:19.680Z,12.35
2023-05-19T01:58:19.868Z,12.31
2023-05-19T01:59:20.026Z,12.29
2023-05-19T02:00:21.307Z,12.29
2023-05-19T02:01:20.426Z,12.31
2023-05-19T02:02:20.506Z,12.29
2023-05-19T02:03:20.678Z,12.32
2023-05-19T02:04:20.855Z,12.31
2023-05-19T02:05:21.005Z,12.31
2023-05-19T02:06:21.172Z,12.35
2023-05-19T02:07:21.336Z,12.32
2023-05-19T02:08:21.493Z,12.31
2023-05-19T02:09:21.667Z,12.35
2023-05-19T02:10:21.831Z,12.32
2023-05-19T02:11:21.984Z,12.36
2023-05-19T02:12:22.179Z,12.36
2023-05-19T02:13:22.337Z,12.39
2023-05-19T02:14:22.514Z,12.39
2023-05-19T02:15:22.684Z,12.40
2023-05-19T02:16:22.940Z,12.40
2023-05-19T02:17:23.063Z,12.40
2023-05-19T02:18:23.223Z,12.42
2023-05-19T02:19:23.498Z,12.45
2023-05-19T02:20:23.580Z,12.46
2023-05-19T02:21:23.734Z,12.46
2023-05-19T02:22:23.888Z,12.47
2023-05-19T02:23:24.100Z,12.47
2023-05-19T02:24:24.280Z,12.46
2023-05-19T02:25:24.436Z,12.49
2023-05-19T02:26:24.603Z,12.47
2023-05-19T02:27:24.788Z,12.47
2023-05-19T02:28:24.966Z,12.47
2023-05-19T02:29:25.134Z,12.49
2023-05-19T02:30:25.304Z,12.46
2023-05-19T02:31:25.486Z,12.47
2023-05-19T02:32:25.702Z,12.49
2023-05-19T02:33:25.845Z,12.46
2023-05-19T02:34:26.021Z,12.45
2023-05-19T02:35:26.180Z,12.46
2023-05-19T02:36:26.347Z,12.45
2023-05-19T02:37:26.507Z,12.45
2023-05-19T02:38:26.724Z,12.40
2023-05-19T02:39:26.880Z,12.40
2023-05-19T02:40:27.053Z,12.39
2023-05-19T02:41:27.216Z,12.39
2023-05-19T02:42:27.386Z,12.36
2023-05-19T02:43:27.589Z,12.35
2023-05-19T02:44:27.734Z,12.35
2023-05-19T02:45:27.902Z,12.31
2023-05-19T02:46:28.149Z,12.31
2023-05-19T02:47:28.326Z,12.32
2023-05-19T02:48:28.443Z,12.31
2023-05-19T02:49:28.625Z,12.29
2023-05-19T02:50:28.802Z,12.27
2023-05-19T02:51:28.989Z,12.29
2023-05-19T02:52:29.154Z,12.27
2023-05-19T02:53:29.335Z,12.25
2023-05-19T02:54:29.529Z,12.25
2023-05-19T02:55:29.716Z,12.25
2023-05-19T02:56:29.904Z,12.25
2023-05-19T02:57:30.071Z,12.25
2023-05-19T02:58:30.258Z,12.21
2023-05-19T02:59:30.442Z,12.20
2023-05-19T03:00:30.786Z,12.20
2023-05-19T03:01:30.814Z,12.18
2023-05-19T03:02:31.093Z,12.18
2023-05-19T03:03:31.224Z,12.18
2023-05-19T03:04:31.315Z,12.15
2023-05-19T03:05:31.465Z,12.15
2023-05-19T03:06:31.663Z,12.18
2023-05-19T03:07:31.851Z,12.15
2023-05-19T03:08:32.025Z,12.13
2023-05-19T03:09:32.180Z,12.15
2023-05-19T03:10:32.510Z,12.17
2023-05-19T03:11:32.525Z,12.17
2023-05-19T03:12:32.699Z,12.15
2023-05-19T03:13:32.860Z,12.17
2023-05-19T03:14:33.068Z,12.17
2023-05-19T03:15:33.234Z,12.15
2023-05-19T03:16:33.512Z,12.12
2023-05-19T03:17:33.849Z,12.13
2023-05-19T03:18:33.768Z,12.10
2023-05-19T03:19:33.959Z,12.12
2023-05-19T03:20:34.300Z,12.12
2023-05-19T03:21:34.365Z,12.12
2023-05-19T03:22:34.513Z,12.13
2023-05-19T03:23:34.693Z,12.13
2023-05-19T03:24:34.891Z,12.17
2023-05-19T03:25:35.086Z,12.21
2023-05-19T03:26:35.259Z,12.22
2023-05-19T03:27:35.428Z,12.24
2023-05-19T03:28:35.608Z,12.27
2023-05-19T03:29:35.773Z,12.29
2023-05-19T03:30:35.964Z,12.35
2023-05-19T03:31:36.134Z,12.36
2023-05-19T03:32:36.361Z,12.37
2023-05-19T03:33:36.537Z,12.42
2023-05-19T03:34:36.656Z,12.43
2023-05-19T03:35:36.815Z,12.46
2023-05-19T03:36:36.984Z,12.49
2023-05-19T03:37:37.144Z,12.50
2023-05-19T03:38:37.337Z,12.57
2023-05-19T03:39:37.539Z,12.60
2023-05-19T03:40:37.724Z,12.62
2023-05-19T03:41:37.879Z,12.64
2023-05-19T03:42:38.119Z,12.67
2023-05-19T03:43:38.273Z,12.72
2023-05-19T03:44:38.422Z,12.75
2023-05-19T03:45:38.652Z,12.78
2023-05-19T03:46:38.777Z,12.78
2023-05-19T03:47:39.073Z,12.83
2023-05-19T03:48:39.128Z,12.86
2023-05-19T03:49:39.351Z,12.90
2023-05-19T03:50:39.471Z,12.90
2023-05-19T03:51:39.645Z,12.93
2023-05-19T03:52:39.834Z,12.95
2023-05-19T03:53:39.973Z,12.93
2023-05-19T03:54:40.149Z,12.97
2023-05-19T03:55:40.320Z,13.00
2023-05-19T03:56:40.505Z,13.05
2023-05-19T03:57:40.652Z,13.12
2023-05-19T03:58:40.822Z,13.19
2023-05-19T03:59:40.991Z,13.27
2023-05-19T04:00:41.160Z,13.33
2023-05-19T04:01:41.358Z,13.41
2023-05-19T04:02:41.657Z,13.49
2023-05-19T04:03:41.800Z,13.57
2023-05-19T04:04:41.908Z,13.62
2023-05-19T04:05:42.048Z,13.67
2023-05-19T04:06:42.204Z,13.75
2023-05-19T04:07:42.389Z,13.77
2023-05-19T04:08:42.557Z,13.83
2023-05-19T04:09:42.720Z,13.86
2023-05-19T04:10:42.889Z,13.92
2023-05-19T04:11:43.078Z,13.96
2023-05-19T04:12:43.245Z,14.04
2023-05-19T04:13:44.561Z,14.08
2023-05-19T04:14:43.576Z,14.14
2023-05-19T04:15:43.859Z,14.20
2023-05-19T04:16:43.944Z,14.25
2023-05-19T04:17:44.146Z,14.28
2023-05-19T04:18:44.336Z,14.33
2023-05-19T04:19:44.454Z,14.36
2023-05-19T04:20:44.630Z,14.41
2023-05-19T04:21:44.818Z,14.45
2023-05-19T04:22:44.985Z,14.51
2023-05-19T04:23:45.152Z,14.59
2023-05-19T04:24:45.358Z,14.58
2023-05-19T04:25:45.492Z,14.65
2023-05-19T04:26:45.658Z,14.70
2023-05-19T04:27:45.836Z,14.78
2023-05-19T04:28:46.007Z,14.82
2023-05-19T04:29:46.208Z,14.88
2023-05-19T04:30:46.439Z,14.96
2023-05-19T04:31:46.600Z,14.97
2023-05-19T04:32:46.759Z,15.03
2023-05-19T04:33:46.920Z,15.10
2023-05-19T04:34:47.101Z,15.15
2023-05-19T04:35:47.261Z,15.21
2023-05-19T04:36:47.435Z,15.24
2023-05-19T04:37:47.622Z,15.29
2023-05-19T04:38:47.810Z,15.37
2023-05-19T04:39:47.952Z,15.42
2023-05-19T04:40:48.135Z,15.52
2023-05-19T04:41:48.308Z,15.55
2023-05-19T04:42:48.444Z,15.57
2023-05-19T04:43:48.607Z,15.59
2023-05-19T04:44:48.777Z,15.64
2023-05-19T04:45:48.964Z,15.72
2023-05-19T04:46:49.160Z,15.77
2023-05-19T04:47:49.386Z,15.82
2023-05-19T04:48:49.521Z,15.86
2023-05-19T04:49:49.666Z,15.90
2023-05-19T04:50:49.849Z,15.92
2023-05-19T04:51:50.033Z,15.98
2023-05-19T04:52:50.210Z,16.05
2023-05-19T04:53:50.372Z,16.13
2023-05-19T04:54:50.552Z,16.17
2023-05-19T04:55:50.705Z,16.21
2023-05-19T04:56:50.872Z,16.24
2023-05-19T04:57:51.055Z,16.28
2023-05-19T04:58:51.240Z,16.28
2023-05-19T04:59:51.399Z,16.31
2023-05-19T05:00:51.565Z,16.33
2023-05-19T05:01:51.828Z,16.32
2023-05-19T05:02:52.030Z,16.35
2023-05-19T05:03:52.159Z,16.41
2023-05-19T05:04:52.289Z,16.51
2023-05-19T05:05:52.470Z,16.69
2023-05-19T05:06:52.684Z,16.89
2023-05-19T05:07:52.828Z,17.01
2023-05-19T05:08:52.999Z,17.12
2023-05-19T05:09:53.177Z,17.20
2023-05-19T05:10:53.362Z,17.22
2023-05-19T05:11:53.515Z,17.19
2023-05-19T05:12:53.689Z,17.19
2023-05-19T05:13:53.892Z,17.24
2023-05-19T05:14:54.043Z,17.31
2023-05-19T05:15:54.290Z,17.36
2023-05-19T05:16:54.465Z,17.39
2023-05-19T05:17:54.598Z,17.41
2023-05-19T05:18:54.794Z,17.49
2023-05-19T05:19:54.898Z,17.64
2023-05-19T05:20:55.085Z,17.82
2023-05-19T05:21:55.266Z,18.01
2023-05-19T05:22:55.481Z,18.25
2023-05-19T05:23:55.629Z,18.40
2023-05-19T05:24:55.830Z,18.58
2023-05-19T05:25:55.996Z,18.73
2023-05-19T05:26:56.154Z,18.86
2023-05-19T05:27:56.340Z,18.95
2023-05-19T05:28:56.528Z,19.04
2023-05-19T05:29:59.224Z,19.16
2023-05-19T05:30:56.897Z,19.33
2023-05-19T05:31:57.049Z,19.52
2023-05-19T05:32:57.314Z,19.73
2023-05-19T05:33:57.378Z,19.94
2023-05-19T05:34:57.583Z,20.14
2023-05-19T05:35:57.753Z,20.43
2023-05-19T05:36:57.946Z,20.72
2023-05-19T05:37:58.113Z,20.96
2023-05-19T05:38:58.290Z,21.22
2023-05-19T05:39:58.453Z,21.58
2023-05-19T05:40:58.625Z,21.93
2023-05-19T05:41:58.789Z,22.29
2023-05-19T05:42:58.998Z,22.57
2023-05-19T05:43:59.130Z,22.85
2023-05-19T05:44:59.293Z,22.91
2023-05-19T05:45:59.501Z,22.91
2023-05-19T05:46:59.647Z,22.94
2023-05-19T05:47:59.827Z,23.03
2023-05-19T05:48:59.997Z,23.15
2023-05-19T05:50:00.214Z,23.24
2023-05-19T05:51:00.358Z,23.28
2023-05-19T05:52:06.285Z,23.43
2023-05-19T05:53:01.715Z,23.63
2023-05-19T05:54:00.891Z,23.87
2023-05-19T05:55:01.069Z,24.11
2023-05-19T05:56:01.276Z,24.39
2023-05-19T05:57:01.440Z,24.69
2023-05-19T05:58:01.624Z,24.96
2023-05-19T05:59:01.768Z,25.18
2023-05-19T06:00:01.968Z,25.25
2023-05-19T06:01:02.124Z,25.35
2023-05-19T06:02:02.384Z,25.53
2023-05-19T06:03:02.602Z,25.78
2023-05-19T06:04:02.679Z,26.00
2023-05-19T06:05:02.867Z,26.33
2023-05-19T06:06:03.108Z,26.48
2023-05-19T06:07:03.207Z,26.59
2023-05-19T06:08:03.355Z,26.78
2023-05-19T06:09:03.556Z,26.90
2023-05-19T06:10:03.697Z,27.07
2023-05-19T06:11:03.886Z,27.18
2023-05-19T06:12:04.078Z,27.22
2023-05-19T06:13:04.236Z,27.35
2023-05-19T06:14:04.393Z,27.55
2023-05-19T06:15:04.575Z,27.71
2023-05-19T06:16:04.808Z,27.80
2023-05-19T06:17:04.979Z,27.90
2023-05-19T06:18:05.128Z,28.00
2023-05-19T06:19:05.353Z,28.10
2023-05-19T06:20:05.470Z,28.11
2023-05-19T06:21:05.680Z,28.19
2023-05-19T06:22:05.826Z,28.35
2023-05-19T06:23:06.006Z,28.52
2023-05-19T06:24:06.197Z,28.66
2023-05-19T06:25:06.393Z,28.76
2023-05-19T06:26:06.543Z,28.85
2023-05-19T06:27:06.728Z,28.93
2023-05-19T06:28:06.934Z,28.98
2023-05-19T06:29:07.106Z,29.14
2023-05-19T06:30:07.266Z,29.29
2023-05-19T06:31:07.491Z,29.47
2023-05-19T06:32:07.628Z,29.41
2023-05-19T06:33:07.856Z,29.32
2023-05-19T06:34:07.973Z,29.16
2023-05-19T06:35:08.147Z,29.05
2023-05-19T06:36:08.308Z,28.84
2023-05-19T06:37:08.494Z,28.67
2023-05-19T06:38:08.686Z,28.72
2023-05-19T06:39:08.856Z,28.75
2023-05-19T06:40:09.004Z,28.78
2023-05-19T06:41:09.170Z,28.78
2023-05-19T06:42:09.355Z,28.60
2023-05-19T06:43:09.569Z,28.42
2023-05-19T06:44:09.713Z,28.33
2023-05-19T06:45:09.901Z,28.12
2023-05-19T06:46:10.061Z,27.95
2023-05-19T06:47:10.418Z,27.86
2023-05-19T06:48:10.516Z,27.93
2023-05-19T06:49:10.605Z,28.25
2023-05-19T06:50:10.792Z,28.45
2023-05-19T06:51:10.980Z,28.63
2023-05-19T06:52:11.165Z,29.04
2023-05-19T06:53:11.328Z,29.50
2023-05-19T06:54:11.521Z,29.93
2023-05-19T06:55:11.661Z,30.30
2023-05-19T06:56:11.856Z,30.65
2023-05-19T06:57:12.008Z,30.87
2023-05-19T06:58:12.232Z,30.91
2023-05-19T06:59:12.364Z,31.06
2023-05-19T07:00:13.964Z,31.12
2023-05-19T07:01:12.720Z,31.27
2023-05-19T07:02:13.039Z,31.47
2023-05-19T07:03:13.218Z,31.66
2023-05-19T07:04:13.370Z,31.69
2023-05-19T07:05:13.410Z,31.65
2023-05-19T07:06:13.597Z,31.40
2023-05-19T07:07:13.777Z,31.22
2023-05-19T07:08:13.968Z,30.99
2023-05-19T07:09:14.130Z,30.61
2023-05-19T07:10:14.320Z,30.25
2023-05-19T07:11:14.480Z,29.72
2023-05-19T07:12:14.666Z,29.36
2023-05-19T07:13:14.812Z,29.20
2023-05-19T07:14:14.996Z,29.14
2023-05-19T07:15:15.166Z,29.12
2023-05-19T07:16:15.410Z,29.27
2023-05-19T07:17:15.678Z,29.53
2023-05-19T07:18:15.685Z,29.66
2023-05-19T07:19:15.892Z,29.86
2023-05-19T07:20:16.028Z,30.10
2023-05-19T07:21:16.186Z,30.25
2023-05-19T07:22:16.385Z,30.53
2023-05-19T07:23:17.432Z,30.59
2023-05-19T07:24:16.748Z,30.61
2023-05-19T07:25:16.886Z,30.62
2023-05-19T07:26:17.071Z,30.77
2023-05-19T07:27:17.258Z,30.92
2023-05-19T07:28:17.419Z,31.18
2023-05-19T07:29:17.584Z,31.44
2023-05-19T07:30:17.781Z,31.52
2023-05-19T07:31:18.055Z,31.65
2023-05-19T07:32:18.169Z,31.56
2023-05-19T07:33:18.269Z,31.54
2023-05-19T07:34:18.452Z,31.65
2023-05-19T07:35:18.643Z,31.76
2023-05-19T07:36:18.842Z,31.85
2023-05-19T07:37:18.996Z,31.80
2023-05-19T07:38:19.174Z,31.64
2023-05-19T07:39:19.484Z,31.43
2023-05-19T07:40:19.546Z,31.47
2023-05-19T07:41:19.749Z,31.55
2023-05-19T07:42:19.879Z,31.58
2023-05-19T07:43:20.069Z,31.74
2023-05-19T07:44:20.245Z,31.97
2023-05-19T07:45:20.462Z,32.23
2023-05-19T07:46:20.671Z,32.38
2023-05-19T07:47:20.756Z,32.41
2023-05-19T07:48:20.937Z,32.37
2023-05-19T07:49:21.120Z,32.22
2023-05-19T07:50:21.333Z,32.15
2023-05-19T07:51:21.491Z,32.18
2023-05-19T07:52:21.667Z,32.11
2023-05-19T07:53:21.873Z,31.94
2023-05-19T07:54:22.039Z,31.70
2023-05-19T07:55:22.208Z,31.49
2023-05-19T07:56:22.355Z,31.27
2023-05-19T07:57:22.544Z,31.22
2023-05-19T07:58:22.706Z,31.18
2023-05-19T07:59:22.888Z,30.94
2023-05-19T08:00:23.062Z,30.77
2023-05-19T08:01:23.257Z,30.63
2023-05-19T08:02:23.552Z,30.57
2023-05-19T08:03:23.923Z,30.85
2023-05-19T08:04:23.835Z,31.18
2023-05-19T08:05:23.947Z,31.10
2023-05-19T08:06:24.128Z,30.92
2023-05-19T08:07:24.314Z,30.73
2023-05-19T08:08:24.522Z,30.59
2023-05-19T08:09:24.673Z,30.24
2023-05-19T08:10:24.927Z,30.05
2023-05-19T08:11:25.022Z,30.00
2023-05-19T08:12:25.207Z,29.93
2023-05-19T08:13:25.400Z,30.09
2023-05-19T08:14:25.558Z,30.06
2023-05-19T08:15:25.749Z,29.84
2023-05-19T08:16:25.923Z,29.61
2023-05-19T08:17:26.116Z,29.41
2023-05-19T08:18:26.258Z,29.19
2023-05-19T08:19:26.520Z,29.07
2023-05-19T08:20:26.593Z,28.86
2023-05-19T08:21:26.736Z,28.70
2023-05-19T08:22:26.962Z,28.64
2023-05-19T08:23:27.104Z,28.60
2023-05-19T08:24:27.254Z,28.52
2023-05-19T08:25:27.444Z,28.51
2023-05-19T08:26:27.619Z,28.48
2023-05-19T08:27:27.828Z,28.57
2023-05-19T08:28:27.973Z,28.59
2023-05-19T08:29:28.165Z,28.56
2023-05-19T08:30:28.356Z,28.60
2023-05-19T08:31:28.588Z,28.62
2023-05-19T08:32:28.717Z,28.70
2023-05-19T08:33:28.852Z,28.76
2023-05-19T08:34:29.039Z,28.81
2023-05-19T08:35:29.225Z,28.91
2023-05-19T08:36:29.423Z,29.12
2023-05-19T08:37:30.705Z,29.16
2023-05-19T08:38:29.737Z,29.07
2023-05-19T08:39:29.885Z,28.89
2023-05-19T08:40:30.148Z,28.81
2023-05-19T08:41:30.250Z,28.89
2023-05-19T08:42:30.415Z,28.91
2023-05-19T08:43:30.627Z,29.02
2023-05-19T08:44:30.846Z,29.26
2023-05-19T08:45:31.164Z,29.68
2023-05-19T08:46:31.194Z,29.88
2023-05-19T08:47:31.319Z,29.78
2023-05-19T08:48:31.476Z,29.47
2023-05-19T08:49:31.638Z,29.07
2023-05-19T08:50:32.043Z,28.67
2023-05-19T08:51:32.043Z,28.62
2023-05-19T08:52:32.156Z,28.89
2023-05-19T08:53:34.634Z,29.42
2023-05-19T08:54:32.546Z,29.76
2023-05-19T08:55:32.847Z,30.21
2023-05-19T08:56:32.862Z,30.78
2023-05-19T08:57:33.047Z,31.34
2023-05-19T08:58:33.215Z,31.97
2023-05-19T08:59:33.387Z,31.99
2023-05-19T09:00:33.980Z,32.12
2023-05-19T09:01:33.831Z,32.23
2023-05-19T09:02:33.930Z,32.70
2023-05-19T09:03:34.172Z,33.09
2023-05-19T09:04:34.438Z,32.87
2023-05-19T09:05:34.748Z,32.31
2023-05-19T09:06:34.606Z,31.92
2023-05-19T09:07:34.864Z,32.38
2023-05-19T09:08:34.992Z,32.77
2023-05-19T09:09:35.159Z,33.46
2023-05-19T09:10:35.307Z,34.05
2023-05-19T09:11:35.479Z,33.95
2023-05-19T09:12:35.669Z,33.40
2023-05-19T09:13:35.877Z,32.68
2023-05-19T09:14:36.043Z,33.00
2023-05-19T09:15:36.522Z,33.34
2023-05-19T09:16:36.435Z,33.37
2023-05-19T09:17:36.634Z,33.86
2023-05-19T09:18:36.747Z,34.30
2023-05-19T09:19:36.908Z,34.81
2023-05-19T09:20:37.104Z,35.24
2023-05-19T09:21:37.252Z,35.64
2023-05-19T09:22:37.495Z,36.00
2023-05-19T09:23:37.639Z,36.31
2023-05-19T09:24:37.843Z,36.18
2023-05-19T09:25:37.984Z,35.42
2023-05-19T09:26:38.190Z,34.36
2023-05-19T09:27:38.329Z,33.79
2023-05-19T09:28:38.525Z,34.11
2023-05-19T09:29:38.676Z,34.81
2023-05-19T09:30:38.860Z,35.53
2023-05-19T09:31:39.077Z,36.37
2023-05-19T09:32:39.277Z,37.20
2023-05-19T09:33:39.395Z,37.74
2023-05-19T09:34:39.586Z,38.19
2023-05-19T09:35:39.742Z,37.89
2023-05-19T09:36:39.920Z,37.06
2023-05-19T09:37:40.088Z,36.14
2023-05-19T09:38:40.283Z,35.19
2023-05-19T09:39:40.466Z,34.20
2023-05-19T09:40:40.620Z,33.27
2023-05-19T09:41:40.835Z,32.41
2023-05-19T09:42:41.001Z,31.74
2023-05-19T09:43:41.157Z,31.21
2023-05-19T09:44:41.338Z,31.58
2023-05-19T09:45:41.530Z,32.38
2023-05-19T09:46:41.867Z,33.05
2023-05-19T09:47:41.883Z,32.95
2023-05-19T09:48:42.044Z,32.38
2023-05-19T09:49:42.216Z,31.66
2023-05-19T09:50:42.399Z,31.06
2023-05-19T09:51:42.565Z,31.31
2023-05-19T09:52:42.726Z,32.19
2023-05-19T09:53:42.932Z,32.96
2023-05-19T09:54:43.082Z,32.97
2023-05-19T09:55:43.288Z,33.01
2023-05-19T09:56:43.438Z,33.24
2023-05-19T09:57:43.602Z,33.42
2023-05-19T09:58:43.775Z,33.79
2023-05-19T09:59:43.919Z,34.11
2023-05-19T10:00:44.116Z,34.05
2023-05-19T10:01:44.349Z,33.37
2023-05-19T10:02:44.486Z,32.60
2023-05-19T10:03:44.623Z,31.76
2023-05-19T10:04:44.870Z,30.99
2023-05-19T10:05:44.972Z,30.31
2023-05-19T10:06:45.157Z,29.72
2023-05-19T10:07:45.277Z,29.26
2023-05-19T10:08:45.505Z,28.97
2023-05-19T10:09:45.640Z,28.82
2023-05-19T10:10:45.783Z,28.70
2023-05-19T10:11:45.966Z,28.47
2023-05-19T10:12:46.149Z,28.29
2023-05-19T10:13:46.329Z,28.23
2023-05-19T10:14:46.528Z,28.23
2023-05-19T10:15:57.414Z,28.32
2023-05-19T10:16:47.886Z,28.32
2023-05-19T10:17:47.054Z,28.14
2023-05-19T10:18:47.231Z,27.82
2023-05-19T10:19:47.368Z,27.49
2023-05-19T10:20:47.576Z,27.30
2023-05-19T10:21:47.690Z,27.20
2023-05-19T10:22:47.890Z,27.05
2023-05-19T10:23:48.109Z,26.89
2023-05-19T10:24:48.242Z,26.77
2023-05-19T10:25:48.421Z,26.70
2023-05-19T10:26:48.626Z,26.62
2023-05-19T10:27:48.800Z,26.65
2023-05-19T10:28:49.030Z,26.62
2023-05-19T10:29:49.129Z,26.63
2023-05-19T10:30:49.296Z,26.58
2023-05-19T10:31:49.589Z,26.56
2023-05-19T10:32:49.713Z,26.66
2023-05-19T10:33:49.823Z,26.77
2023-05-19T10:34:50.010Z,26.95
2023-05-19T10:35:50.193Z,27.10
2023-05-19T10:36:50.387Z,27.21
2023-05-19T10:37:50.559Z,27.32
2023-05-19T10:38:50.735Z,27.33
2023-05-19T10:39:50.903Z,27.37
2023-05-19T10:40:51.103Z,27.44
2023-05-19T10:41:51.270Z,27.47
2023-05-19T10:42:51.473Z,27.55
2023-05-19T10:43:51.614Z,27.67
2023-05-19T10:44:51.791Z,27.73
2023-05-19T10:45:51.994Z,27.77
2023-05-19T10:46:54.175Z,27.87
2023-05-19T10:47:52.379Z,27.93
2023-05-19T10:48:52.534Z,28.01
2023-05-19T10:49:52.713Z,28.05
2023-05-19T10:50:52.889Z,28.02
2023-05-19T10:51:53.065Z,28.00
2023-05-19T10:52:53.233Z,28.00
2023-05-19T10:53:53.400Z,27.86
2023-05-19T10:54:53.559Z,27.77
2023-05-19T10:55:53.849Z,27.67
2023-05-19T10:56:53.898Z,27.63
2023-05-19T10:57:54.110Z,27.55
2023-05-19T10:58:54.231Z,27.48
2023-05-19T10:59:54.424Z,27.32
2023-05-19T11:00:54.618Z,27.20
2023-05-19T11:01:54.833Z,27.11
2023-05-19T11:02:54.993Z,26.90
2023-05-19T11:03:55.214Z,26.83
2023-05-19T11:04:55.297Z,26.78
2023-05-19T11:05:55.513Z,26.75
2023-05-19T11:06:55.692Z,26.75
2023-05-19T11:07:55.859Z,26.74
2023-05-19T11:08:56.013Z,26.80
2023-05-19T11:09:56.172Z,26.88
2023-05-19T11:10:56.354Z,26.95
2023-05-19T11:11:56.526Z,26.96
2023-05-19T11:12:58.184Z,26.80
2023-05-19T11:13:56.901Z,26.63
2023-05-19T11:14:57.054Z,26.44
2023-05-19T11:15:57.232Z,26.22
2023-05-19T11:16:57.439Z,26.00
2023-05-19T11:17:57.616Z,25.85
2023-05-19T11:18:57.730Z,25.73
2023-05-19T11:19:57.879Z,25.69
2023-05-19T11:20:58.182Z,25.66
2023-05-19T11:21:58.208Z,25.55
2023-05-19T11:22:58.382Z,25.48
2023-05-19T11:23:58.663Z,25.40
2023-05-19T11:24:58.703Z,25.31
2023-05-19T11:25:58.874Z,25.26
2023-05-19T11:26:59.027Z,25.26
2023-05-19T11:27:59.198Z,25.22
2023-05-19T11:28:59.386Z,25.16
2023-05-19T11:29:59.564Z,25.08
2023-05-19T11:30:59.715Z,25.04
2023-05-19T11:31:59.935Z,25.01
2023-05-19T11:33:00.072Z,24.98
2023-05-19T11:34:00.232Z,25.03
2023-05-19T11:35:00.382Z,25.03
2023-05-19T11:36:00.575Z,25.08
2023-05-19T11:37:00.714Z,25.16
2023-05-19T11:38:00.926Z,25.18
2023-05-19T11:39:01.145Z,25.21
2023-05-19T11:40:01.292Z,25.22
2023-05-19T11:41:01.420Z,25.18
2023-05-19T11:42:01.601Z,25.13
2023-05-19T11:43:01.774Z,25.10
2023-05-19T11:44:01.962Z,25.11
2023-05-19T11:45:02.134Z,25.13
2023-05-19T11:46:02.325Z,25.14
2023-05-19T11:47:02.491Z,25.06
2023-05-19T11:48:03.426Z,24.93
2023-05-19T11:49:02.856Z,24.80
2023-05-19T11:50:03.005Z,24.70
2023-05-19T11:51:03.179Z,24.63
2023-05-19T11:52:03.333Z,24.61
2023-05-19T11:53:03.509Z,24.65
2023-05-19T11:54:03.663Z,24.68
2023-05-19T11:55:03.813Z,24.78
2023-05-19T11:56:04.006Z,24.88
2023-05-19T11:57:04.221Z,24.93
2023-05-19T11:58:05.749Z,24.93
2023-05-19T11:59:04.608Z,24.95
2023-05-19T12:00:04.719Z,24.92
2023-05-19T12:01:04.908Z,24.93
2023-05-19T12:02:05.071Z,24.91
2023-05-19T12:03:05.628Z,24.86
2023-05-19T12:04:05.468Z,24.88
2023-05-19T12:05:05.695Z,24.95
2023-05-19T12:06:05.884Z,24.98
2023-05-19T12:07:05.935Z,25.04
2023-05-19T12:08:06.116Z,25.11
2023-05-19T12:09:06.235Z,25.18
2023-05-19T12:10:06.452Z,25.29
2023-05-19T12:11:06.602Z,25.38
2023-05-19T12:12:06.779Z,25.43
2023-05-19T12:13:06.963Z,25.46
2023-05-19T12:14:07.128Z,25.53
2023-05-19T12:15:07.296Z,25.55
2023-05-19T12:16:07.539Z,25.55
2023-05-19T12:17:07.638Z,25.47
2023-05-19T12:18:07.905Z,25.36
2023-05-19T12:19:07.993Z,25.29
2023-05-19T12:20:08.173Z,25.22
2023-05-19T12:21:08.411Z,25.25
2023-05-19T12:22:08.569Z,25.28
2023-05-19T12:23:08.674Z,25.31
2023-05-19T12:24:09.041Z,25.35
2023-05-19T12:25:09.038Z,25.41
2023-05-19T12:26:09.260Z,25.43
2023-05-19T12:27:09.454Z,25.43
2023-05-19T12:28:09.580Z,25.36
2023-05-19T12:29:09.725Z,25.33
2023-05-19T12:30:10.059Z,25.31
2023-05-19T12:31:10.157Z,25.31
2023-05-19T12:32:10.361Z,25.31
2023-05-19T12:33:10.482Z,25.29
2023-05-19T12:34:10.631Z,25.36
2023-05-19T12:35:10.806Z,25.44
2023-05-19T12:36:10.971Z,25.46
2023-05-19T12:37:11.137Z,25.48
2023-05-19T12:38:11.335Z,25.48
2023-05-19T12:39:11.492Z,25.48
2023-05-19T12:40:11.649Z,25.47
2023-05-19T12:41:11.805Z,25.50
2023-05-19T12:42:12.011Z,25.50
2023-05-19T12:43:12.189Z,25.48
2023-05-19T12:44:12.375Z,25.50
2023-05-19T12:45:12.519Z,25.47
2023-05-19T12:46:12.779Z,25.46
2023-05-19T12:47:12.839Z,25.40
2023-05-19T12:48:13.131Z,25.35
2023-05-19T12:49:13.184Z,25.26
2023-05-19T12:50:13.368Z,25.23
2023-05-19T12:51:13.577Z,25.14
2023-05-19T12:52:13.750Z,25.11
2023-05-19T12:53:13.943Z,25.10
2023-05-19T12:54:14.175Z,25.13
2023-05-19T12:55:14.489Z,25.10